createdAt,value
2023-03-01T00:00:15.217Z,86.70
2023-03-01T00:02:20.182Z,86.90
2023-03-01T00:04:25.099Z,86.60
2023-03-01T00:06:31.700Z,86.50
2023-03-01T00:08:37.594Z,86.50
2023-03-01T00:10:44.063Z,86.80
2023-03-01T00:12:49.005Z,87.30
2023-03-01T00:14:54.488Z,86.70
2023-03-01T00:17:03.092Z,87.30
2023-03-01T00:19:09.025Z,87.20
2023-03-01T00:21:14.042Z,86.90
2023-03-01T00:23:22.556Z,87.20
2023-03-01T00:25:27.511Z,87.60
2023-03-01T00:27:33.084Z,87.50
2023-03-01T00:29:38.043Z,87.90
2023-03-01T00:31:43.240Z,87.30
2023-03-01T00:33:51.543Z,87.80
2023-03-01T00:35:56.461Z,87.10
2023-03-01T00:38:01.906Z,86.90
2023-03-01T00:40:09.079Z,87.40
2023-03-01T00:42:14.966Z,87.50
2023-03-01T00:44:20.411Z,87.30
2023-03-01T00:46:31.374Z,87.80
2023-03-01T00:48:37.962Z,87.40
2023-03-01T00:50:45.667Z,87.60
2023-03-01T00:52:50.729Z,87.90
2023-03-01T00:54:57.124Z,88.30
2023-03-01T00:57:02.851Z,88.00
2023-03-01T00:59:08.535Z,87.90
2023-03-01T01:01:20.900Z,87.80
2023-03-01T01:03:27.369Z,88.00
2023-03-01T01:05:33.138Z,87.80
2023-03-01T01:07:40.801Z,87.70
2023-03-01T01:09:45.730Z,88.10
2023-03-01T01:11:54.146Z,88.30
2023-03-01T01:14:01.033Z,88.00
2023-03-01T01:16:09.380Z,88.10
2023-03-01T01:18:15.095Z,88.10
2023-03-01T01:20:20.845Z,88.30
2023-03-01T01:22:26.099Z,87.60
2023-03-01T01:24:33.620Z,88.40
2023-03-01T01:26:39.031Z,88.40
2023-03-01T01:28:44.887Z,88.40
2023-03-01T01:30:49.850Z,88.40
2023-03-01T01:32:55.148Z,88.30
2023-03-01T01:35:00.442Z,88.70
2023-03-01T01:37:08.803Z,88.70
2023-03-01T01:39:14.672Z,88.80
2023-03-01T01:41:24.440Z,88.50
2023-03-01T01:43:32.582Z,88.50
2023-03-01T01:45:40.231Z,88.70
2023-03-01T01:47:49.624Z,88.40
2023-03-01T01:49:58.245Z,88.60
2023-03-01T01:52:14.516Z,88.70
2023-03-01T01:54:24.985Z,89.00
2023-03-01T01:56:33.699Z,88.50
2023-03-01T01:58:39.726Z,88.10
2023-03-01T02:00:44.719Z,88.50
2023-03-01T02:02:56.184Z,88.10
2023-03-01T02:05:14.376Z,87.40
2023-03-01T02:07:25.027Z,87.40
2023-03-01T02:09:31.748Z,87.80
2023-03-01T02:11:40.665Z,87.60
2023-03-01T02:13:46.413Z,88.00
2023-03-01T02:15:51.775Z,87.80
2023-03-01T02:17:58.663Z,88.00
2023-03-01T02:20:17.683Z,87.40
2023-03-01T02:22:29.016Z,87.10
2023-03-01T02:24:45.439Z,87.60
2023-03-01T02:26:56.491Z,87.60
2023-03-01T02:29:04.312Z,88.20
2023-03-01T02:31:24.973Z,87.60
2023-03-01T02:33:34.211Z,88.10
2023-03-01T02:35:42.490Z,87.90
2023-03-01T02:37:48.620Z,87.80
2023-03-01T02:40:02.175Z,87.70
2023-03-01T02:42:10.143Z,87.50
2023-03-01T02:44:17.876Z,87.60
2023-03-01T02:46:26.306Z,87.80
2023-03-01T02:48:31.263Z,87.60
2023-03-01T02:51:01.226Z,88.40
2023-03-01T02:53:11.873Z,87.90
2023-03-01T02:55:21.177Z,88.00
2023-03-01T02:57:28.970Z,87.70
2023-03-01T02:59:40.821Z,87.70
2023-03-01T03:01:47.518Z,87.80
2023-03-01T03:03:53.203Z,88.30
2023-03-01T03:05:58.688Z,88.70
2023-03-01T03:08:06.686Z,88.30
2023-03-01T03:10:21.183Z,88.20
2023-03-01T03:12:26.781Z,88.60
2023-03-01T03:14:36.282Z,88.70
2023-03-01T03:16:45.094Z,88.80
2023-03-01T03:18:51.737Z,88.60
2023-03-01T03:20:57.935Z,88.60
2023-03-01T03:23:02.976Z,88.60
2023-03-01T03:25:11.369Z,88.20
2023-03-01T03:27:16.993Z,88.40
2023-03-01T03:29:21.887Z,88.40
2023-03-01T03:31:28.270Z,88.30
2023-03-01T03:33:36.052Z,88.90
2023-03-01T03:35:45.449Z,88.70
2023-03-01T03:38:07.227Z,89.30
2023-03-01T03:40:16.541Z,88.70
2023-03-01T03:42:21.754Z,88.70
2023-03-01T03:44:26.821Z,89.20
2023-03-01T03:46:32.060Z,89.10
2023-03-01T03:48:42.487Z,89.20
2023-03-01T03:50:53.016Z,88.80
2023-03-01T03:52:58.973Z,88.30
2023-03-01T03:55:10.539Z,87.40
2023-03-01T03:57:15.927Z,87.30
2023-03-01T03:59:20.857Z,88.10
2023-03-01T04:01:26.280Z,88.20
2023-03-01T04:03:33.429Z,88.10
2023-03-01T04:05:42.683Z,88.10
2023-03-01T04:07:49.825Z,86.40
2023-03-01T04:09:54.709Z,87.20
2023-03-01T04:12:02.312Z,86.60
2023-03-01T04:14:08.002Z,86.50
2023-03-01T04:16:12.900Z,86.60
2023-03-01T04:18:20.137Z,86.60
2023-03-01T04:20:29.248Z,86.80
2023-03-01T04:22:37.188Z,86.70
2023-03-01T04:24:42.699Z,85.90
2023-03-01T04:26:47.570Z,86.20
2023-03-01T04:28:53.244Z,86.30
2023-03-01T04:30:59.856Z,86.60
2023-03-01T04:33:07.052Z,86.90
2023-03-01T04:35:12.725Z,87.10
2023-03-01T04:37:18.022Z,87.00
2023-03-01T04:39:26.061Z,87.30
2023-03-01T04:41:31.914Z,87.00
2023-03-01T04:43:37.967Z,87.20
2023-03-01T04:45:42.947Z,87.40
2023-03-01T04:47:49.991Z,87.60
2023-03-01T04:49:55.947Z,87.50
2023-03-01T04:52:05.585Z,87.40
2023-03-01T04:54:11.340Z,87.00
2023-03-01T04:56:19.872Z,87.50
2023-03-01T04:58:25.060Z,87.90
2023-03-01T05:00:30.249Z,87.60
2023-03-01T05:02:36.251Z,88.00
2023-03-01T05:04:41.170Z,87.90
2023-03-01T05:06:48.252Z,88.30
2023-03-01T05:08:53.456Z,88.10
2023-03-01T05:10:58.345Z,87.70
2023-03-01T05:13:08.266Z,87.70
2023-03-01T05:15:14.237Z,87.60
2023-03-01T05:17:19.329Z,87.70
2023-03-01T05:19:25.131Z,88.30
2023-03-01T05:21:30.151Z,88.20
2023-03-01T05:23:37.366Z,88.40
2023-03-01T05:25:44.130Z,88.20
2023-03-01T05:27:49.371Z,88.80
2023-03-01T05:29:56.853Z,89.40
2023-03-01T05:32:04.417Z,89.10
2023-03-01T05:34:09.343Z,89.10
2023-03-01T05:36:15.261Z,88.90
2023-03-01T05:38:20.868Z,88.90
2023-03-01T05:40:27.909Z,88.90
2023-03-01T05:42:33.237Z,88.70
2023-03-01T05:44:38.562Z,89.00
2023-03-01T05:46:46.059Z,89.40
2023-03-01T05:48:51.565Z,89.60
2023-03-01T05:50:56.445Z,89.30
2023-03-01T05:53:05.431Z,89.20
2023-03-01T05:55:12.354Z,89.20
2023-03-01T05:57:17.590Z,89.60
2023-03-01T05:59:22.493Z,90.20
2023-03-01T06:01:28.067Z,90.40
2023-03-01T06:03:35.955Z,90.20
2023-03-01T06:05:40.921Z,89.70
2023-03-01T06:07:46.724Z,89.50
2023-03-01T06:09:51.637Z,89.90
2023-03-01T06:12:00.931Z,89.50
2023-03-01T06:14:08.106Z,89.00
2023-03-01T06:16:14.770Z,89.10
2023-03-01T06:18:19.715Z,89.60
2023-03-01T06:20:30.209Z,89.70
2023-03-01T06:22:35.545Z,89.60
2023-03-01T06:24:41.183Z,89.90
2023-03-01T06:26:46.465Z,89.30
2023-03-01T06:28:53.119Z,89.70
2023-03-01T06:30:58.243Z,89.20
2023-03-01T06:33:04.297Z,89.60
2023-03-01T06:35:11.915Z,89.50
2023-03-01T06:37:19.945Z,89.50
2023-03-01T06:39:27.346Z,89.80
2023-03-01T06:41:34.250Z,89.50
2023-03-01T06:43:39.559Z,89.00
2023-03-01T06:45:45.044Z,89.10
2023-03-01T06:47:50.776Z,89.10
2023-03-01T06:49:56.366Z,89.20
2023-03-01T06:52:01.307Z,89.20
2023-03-01T06:54:09.296Z,89.20
2023-03-01T06:56:14.315Z,88.80
2023-03-01T06:58:19.222Z,88.50
2023-03-01T07:00:26.761Z,88.20
2023-03-01T07:02:34.931Z,87.60
2023-03-01T07:04:39.813Z,87.60
2023-03-01T07:06:45.758Z,87.00
2023-03-01T07:08:51.509Z,86.50
2023-03-01T07:11:03.387Z,86.30
2023-03-01T07:13:10.943Z,86.60
2023-03-01T07:15:16.228Z,86.70
2023-03-01T07:17:22.197Z,86.60
2023-03-01T07:19:27.422Z,86.80
2023-03-01T07:21:32.813Z,86.50
2023-03-01T07:23:39.149Z,86.20
2023-03-01T07:25:44.084Z,85.30
2023-03-01T07:27:56.974Z,84.40
2023-03-01T07:30:02.690Z,84.40
2023-03-01T07:32:08.943Z,84.30
2023-03-01T07:34:17.193Z,83.70
2023-03-01T07:36:22.090Z,84.20
2023-03-01T07:38:27.662Z,84.30
2023-03-01T07:40:32.617Z,83.70
2023-03-01T07:42:38.925Z,82.70
2023-03-01T07:44:46.505Z,83.20
2023-03-01T07:46:57.360Z,82.70
2023-03-01T07:49:06.414Z,82.90
2023-03-01T07:51:11.899Z,82.60
2023-03-01T07:53:17.130Z,82.50
2023-03-01T07:55:22.030Z,82.00
2023-03-01T07:57:28.410Z,81.80
2023-03-01T07:59:34.011Z,82.10
2023-03-01T08:01:41.583Z,81.40
2023-03-01T08:03:49.123Z,81.50
2023-03-01T08:05:54.018Z,81.30
2023-03-01T08:08:02.047Z,80.20
2023-03-01T08:10:07.941Z,80.40
2023-03-01T08:12:13.226Z,79.80
2023-03-01T08:14:18.142Z,79.50
2023-03-01T08:16:23.756Z,79.20
2023-03-01T08:18:31.675Z,79.50
2023-03-01T08:20:36.605Z,79.70
2023-03-01T08:22:41.505Z,79.40
2023-03-01T08:24:46.436Z,79.80
2023-03-01T08:26:51.956Z,78.80
2023-03-01T08:28:57.311Z,79.20
2023-03-01T08:31:02.251Z,78.40
2023-03-01T08:33:07.742Z,77.80
2023-03-01T08:35:15.402Z,78.70
2023-03-01T08:37:20.684Z,78.10
2023-03-01T08:39:26.014Z,77.60
2023-03-01T08:41:31.897Z,78.10
2023-03-01T08:43:37.322Z,77.80
2023-03-01T08:45:42.231Z,76.50
2023-03-01T08:47:47.922Z,77.00
2023-03-01T08:49:54.080Z,76.90
2023-03-01T08:52:02.216Z,76.60
2023-03-01T08:54:07.785Z,75.60
2023-03-01T08:56:14.064Z,75.40
2023-03-01T08:58:19.040Z,75.00
2023-03-01T09:00:26.018Z,75.10
2023-03-01T09:02:30.942Z,74.80
2023-03-01T09:04:36.406Z,73.90
2023-03-01T09:06:41.542Z,73.00
2023-03-01T09:08:51.950Z,72.20
2023-03-01T09:10:56.887Z,71.90
2023-03-01T09:13:02.627Z,72.20
2023-03-01T09:15:09.126Z,72.30
2023-03-01T09:17:14.591Z,71.00
2023-03-01T09:19:19.518Z,71.80
2023-03-01T09:21:39.682Z,71.20
2023-03-01T09:23:50.074Z,71.90
2023-03-01T09:25:56.094Z,69.40
2023-03-01T09:28:01.012Z,70.60
2023-03-01T09:30:06.969Z,69.70
2023-03-01T09:32:12.448Z,68.30
2023-03-01T09:34:20.285Z,68.30
2023-03-01T09:36:27.769Z,69.10
2023-03-01T09:38:33.589Z,69.10
2023-03-01T09:40:47.514Z,67.40
2023-03-01T09:43:05.084Z,67.50
2023-03-01T09:45:18.794Z,67.30
2023-03-01T09:47:27.987Z,66.70
2023-03-01T09:49:36.745Z,65.90
2023-03-01T09:51:41.962Z,66.40
2023-03-01T09:53:47.368Z,66.70
2023-03-01T09:56:03.023Z,64.80
2023-03-01T09:58:36.257Z,65.10
2023-03-01T10:00:46.848Z,65.60
2023-03-01T10:03:00.811Z,63.60
2023-03-01T10:05:22.816Z,65.00
2023-03-01T10:07:43.411Z,62.90
2023-03-01T10:09:50.217Z,64.40
2023-03-01T10:11:59.320Z,64.60
2023-03-01T10:14:09.878Z,62.60
2023-03-01T10:16:21.844Z,64.60
2023-03-01T10:18:30.432Z,62.60
2023-03-01T10:20:47.447Z,61.90
2023-03-01T10:22:56.134Z,62.00
2023-03-01T10:25:06.663Z,61.10
2023-03-01T10:27:23.185Z,61.30
2023-03-01T10:29:34.780Z,61.00
2023-03-01T10:31:47.407Z,61.30
2023-03-01T10:33:55.906Z,60.20
2023-03-01T10:36:01.142Z,60.00
2023-03-01T10:38:11.727Z,59.20
2023-03-01T10:40:17.106Z,60.00
2023-03-01T10:42:31.964Z,60.40
2023-03-01T10:44:51.118Z,60.30
2023-03-01T10:47:05.100Z,59.80
2023-03-01T10:49:18.135Z,58.20
2023-03-01T10:51:23.304Z,57.50
2023-03-01T10:53:32.648Z,57.80
2023-03-01T10:55:40.962Z,58.90
2023-03-01T10:57:48.455Z,57.80
2023-03-01T11:00:24.936Z,57.40
2023-03-01T11:02:34.342Z,58.40
2023-03-01T11:04:39.971Z,55.50
2023-03-01T11:06:45.973Z,56.20
2023-03-01T11:08:53.925Z,58.00
2023-03-01T11:11:25.710Z,56.20
2023-03-01T11:13:33.925Z,56.70
2023-03-01T11:15:39.702Z,56.30
2023-03-01T11:17:53.846Z,57.10
2023-03-01T11:20:24.684Z,57.20
2023-03-01T11:22:29.702Z,55.00
2023-03-01T11:24:43.707Z,56.60
2023-03-01T11:26:54.255Z,56.80
2023-03-01T11:29:10.265Z,54.70
2023-03-01T11:31:17.858Z,55.30
2023-03-01T11:33:37.337Z,56.10
2023-03-01T11:35:51.540Z,54.30
2023-03-01T11:38:08.748Z,53.20
2023-03-01T11:40:26.383Z,53.70
2023-03-01T11:42:53.688Z,54.50
2023-03-01T11:45:06.075Z,55.60
2023-03-01T11:47:36.738Z,52.50
2023-03-01T11:50:17.215Z,52.10
2023-03-01T11:52:35.067Z,53.10
2023-03-01T11:54:59.536Z,53.50
2023-03-01T11:57:11.401Z,54.90
2023-03-01T12:00:06.135Z,53.80
2023-03-01T12:02:43.995Z,53.70
2023-03-01T12:05:22.489Z,53.40
2023-03-01T12:07:41.089Z,53.60
2023-03-01T12:10:21.663Z,52.80
2023-03-01T12:12:42.346Z,54.40
2023-03-01T12:15:15.506Z,53.00
2023-03-01T12:17:38.711Z,55.00
2023-03-01T12:20:20.882Z,52.60
2023-03-01T12:22:35.282Z,51.20
2023-03-01T12:25:24.812Z,52.70
2023-03-01T12:28:20.835Z,52.60
2023-03-01T12:30:46.634Z,51.60
2023-03-01T12:33:08.790Z,53.60
2023-03-01T12:36:08.078Z,53.10
2023-03-01T12:38:37.564Z,50.60
2023-03-01T12:41:07.410Z,53.90
2023-03-01T12:43:26.991Z,53.00
2023-03-01T12:46:05.414Z,51.60
2023-03-01T12:48:31.112Z,51.90
2023-03-01T12:50:44.865Z,50.20
2023-03-01T12:52:54.917Z,50.70
2023-03-01T12:55:04.622Z,51.80
2023-03-01T12:57:18.020Z,52.80
2023-03-01T12:59:30.656Z,50.70
2023-03-01T13:01:51.451Z,50.90
2023-03-01T13:04:15.536Z,51.40
2023-03-01T13:06:38.129Z,49.70
2023-03-01T13:08:54.159Z,49.10
2023-03-01T13:11:02.415Z,49.30
2023-03-01T13:13:22.021Z,49.00
2023-03-01T13:15:34.180Z,47.10
2023-03-01T13:17:49.312Z,46.20
2023-03-01T13:20:01.441Z,45.00
2023-03-01T13:22:33.479Z,46.30
2023-03-01T13:24:44.122Z,46.50
2023-03-01T13:27:30.540Z,45.70
2023-03-01T13:29:49.117Z,45.30
2023-03-01T13:32:05.914Z,47.80
2023-03-01T13:34:49.365Z,45.50
2023-03-01T13:36:54.344Z,43.20
2023-03-01T13:39:01.875Z,43.30
2023-03-01T13:41:07.915Z,42.90
2023-03-01T13:43:34.184Z,41.70
2023-03-01T13:45:43.010Z,42.10
2023-03-01T13:47:50.782Z,39.50
2023-03-01T13:50:01.939Z,40.40
2023-03-01T13:52:09.325Z,41.00
2023-03-01T13:54:17.915Z,41.30
2023-03-01T13:56:27.949Z,42.90
2023-03-01T13:58:36.987Z,45.50
2023-03-01T14:00:43.672Z,42.60
2023-03-01T14:02:51.792Z,41.90
2023-03-01T14:05:04.978Z,39.10
2023-03-01T14:07:15.929Z,41.10
2023-03-01T14:09:25.091Z,41.20
2023-03-01T14:12:17.515Z,43.80
2023-03-01T14:14:46.714Z,41.80
2023-03-01T14:17:00.263Z,41.30
2023-03-01T14:19:32.650Z,41.60
2023-03-01T14:21:41.128Z,43.00
2023-03-01T14:23:47.812Z,41.00
2023-03-01T14:25:56.093Z,41.50
2023-03-01T14:28:06.744Z,38.70
2023-03-01T14:30:22.816Z,38.70
2023-03-01T14:32:33.481Z,39.10
2023-03-01T14:34:38.745Z,38.10
2023-03-01T14:36:46.245Z,41.10
2023-03-01T14:38:51.754Z,40.10
2023-03-01T14:41:03.121Z,40.90
2023-03-01T14:43:15.742Z,38.80
2023-03-01T14:45:21.544Z,42.00
2023-03-01T14:47:31.990Z,39.60
2023-03-01T14:49:38.073Z,40.00
2023-03-01T14:51:53.223Z,40.40
2023-03-01T14:53:58.901Z,39.60
2023-03-01T14:56:06.213Z,37.80
2023-03-01T14:58:18.230Z,41.50
2023-03-01T15:00:26.724Z,39.00
2023-03-01T15:02:34.062Z,39.30
2023-03-01T15:04:39.467Z,39.20
2023-03-01T15:06:47.856Z,37.50
2023-03-01T15:08:57.884Z,39.10
2023-03-01T15:11:09.862Z,40.40
2023-03-01T15:13:16.015Z,40.00
2023-03-01T15:15:39.061Z,38.90
2023-03-01T15:17:44.016Z,41.20
2023-03-01T15:19:50.812Z,39.70
2023-03-01T15:22:00.158Z,41.40
2023-03-01T15:24:20.544Z,39.60
2023-03-01T15:26:30.480Z,38.50
2023-03-01T15:28:41.023Z,38.60
2023-03-01T15:30:46.513Z,38.20
2023-03-01T15:32:51.443Z,37.60
2023-03-01T15:34:56.474Z,38.80
2023-03-01T15:37:08.955Z,38.90
2023-03-01T15:39:45.124Z,41.10
2023-03-01T15:41:52.635Z,39.70
2023-03-01T15:43:59.067Z,40.20
2023-03-01T15:46:05.392Z,38.80
2023-03-01T15:48:26.596Z,39.00
2023-03-01T15:50:35.731Z,39.10
2023-03-01T15:52:45.892Z,39.50
2023-03-01T15:54:50.813Z,40.80
2023-03-01T15:56:56.243Z,39.50
2023-03-01T15:59:08.246Z,39.70
2023-03-01T16:01:16.833Z,39.70
2023-03-01T16:03:22.952Z,41.00
2023-03-01T16:05:32.194Z,39.80
2023-03-01T16:07:40.930Z,40.90
2023-03-01T16:09:48.448Z,39.90
2023-03-01T16:11:53.901Z,40.30
2023-03-01T16:13:59.001Z,41.20
2023-03-01T16:16:04.062Z,40.70
2023-03-01T16:18:11.970Z,39.90
2023-03-01T16:20:28.048Z,41.90
2023-03-01T16:22:33.652Z,41.70
2023-03-01T16:24:39.187Z,41.50
2023-03-01T16:26:46.679Z,43.80
2023-03-01T16:28:51.687Z,44.50
2023-03-01T16:30:56.685Z,43.40
2023-03-01T16:33:02.108Z,44.90
2023-03-01T16:35:08.548Z,45.50
2023-03-01T16:37:13.954Z,45.50
2023-03-01T16:39:18.864Z,46.10
2023-03-01T16:41:26.388Z,47.00
2023-03-01T16:43:34.067Z,48.70
2023-03-01T16:45:41.701Z,49.00
2023-03-01T16:47:47.046Z,48.80
2023-03-01T16:49:55.420Z,49.80
2023-03-01T16:52:00.595Z,50.40
2023-03-01T16:54:05.811Z,51.90
2023-03-01T16:56:13.490Z,52.60
2023-03-01T16:58:18.796Z,52.80
2023-03-01T17:00:27.176Z,53.20
2023-03-01T17:02:32.112Z,54.20
2023-03-01T17:04:37.349Z,55.00
2023-03-01T17:06:42.485Z,55.00
2023-03-01T17:08:47.577Z,55.90
2023-03-01T17:10:52.482Z,56.00
2023-03-01T17:12:57.355Z,56.60
2023-03-01T17:15:02.503Z,57.30
2023-03-01T17:17:10.348Z,58.50
2023-03-01T17:19:18.544Z,58.70
2023-03-01T17:21:23.971Z,58.60
2023-03-01T17:23:29.661Z,60.30
2023-03-01T17:25:34.556Z,60.50
2023-03-01T17:27:40.812Z,60.60
2023-03-01T17:29:45.781Z,60.50
2023-03-01T17:31:51.058Z,60.60
2023-03-01T17:34:01.200Z,60.90
2023-03-01T17:36:08.239Z,61.70
2023-03-01T17:38:13.140Z,62.10
2023-03-01T17:40:18.666Z,62.70
2023-03-01T17:42:23.591Z,63.20
2023-03-01T17:44:29.402Z,63.00
2023-03-01T17:46:34.853Z,63.90
2023-03-01T17:48:40.485Z,63.50
2023-03-01T17:50:48.229Z,64.20
2023-03-01T17:52:53.433Z,64.30
2023-03-01T17:54:59.029Z,64.80
2023-03-01T17:57:04.348Z,64.80
2023-03-01T17:59:09.423Z,65.50
2023-03-01T18:01:19.087Z,65.50
2023-03-01T18:03:24.398Z,65.90
2023-03-01T18:05:30.299Z,65.80
2023-03-01T18:07:38.559Z,66.50
2023-03-01T18:09:43.436Z,66.50
2023-03-01T18:11:48.852Z,67.10
2023-03-01T18:13:54.656Z,67.40
2023-03-01T18:16:01.870Z,66.70
2023-03-01T18:18:07.107Z,68.30
2023-03-01T18:20:15.501Z,68.50
2023-03-01T18:22:21.245Z,68.10
2023-03-01T18:24:28.759Z,68.30
2023-03-01T18:26:34.157Z,68.50
2023-03-01T18:28:40.315Z,69.30
2023-03-01T18:30:45.385Z,70.10
2023-03-01T18:32:56.142Z,70.20
2023-03-01T18:35:01.366Z,70.80
2023-03-01T18:37:09.525Z,70.30
2023-03-01T18:39:17.745Z,70.40
2023-03-01T18:41:27.153Z,70.90
2023-03-01T18:43:32.854Z,70.60
2023-03-01T18:45:38.274Z,70.10
2023-03-01T18:47:43.465Z,70.70
2023-03-01T18:49:48.403Z,71.20
2023-03-01T18:51:53.382Z,71.50
2023-03-01T18:53:58.903Z,71.30
2023-03-01T18:56:04.028Z,71.80
2023-03-01T18:58:11.560Z,72.30
2023-03-01T19:00:18.972Z,72.50
2023-03-01T19:02:24.408Z,73.30
2023-03-01T19:04:29.300Z,73.10
2023-03-01T19:06:36.538Z,73.20
2023-03-01T19:08:44.308Z,72.80
2023-03-01T19:10:49.248Z,72.90
2023-03-01T19:12:54.161Z,72.30
2023-03-01T19:15:01.794Z,72.70
2023-03-01T19:17:06.692Z,72.30
2023-03-01T19:19:11.646Z,72.30
2023-03-01T19:21:16.548Z,72.10
2023-03-01T19:23:21.399Z,72.20
2023-03-01T19:25:26.833Z,72.50
2023-03-01T19:27:31.738Z,72.80
2023-03-01T19:29:36.655Z,72.70
2023-03-01T19:31:44.134Z,73.30
2023-03-01T19:33:50.208Z,73.20
2023-03-01T19:35:56.918Z,72.80
2023-03-01T19:38:01.866Z,72.50
2023-03-01T19:40:08.658Z,73.00
2023-03-01T19:42:13.729Z,72.70
2023-03-01T19:44:18.881Z,71.80
2023-03-01T19:46:24.068Z,71.70
2023-03-01T19:48:32.278Z,71.10
2023-03-01T19:50:38.397Z,70.90
2023-03-01T19:52:43.313Z,70.50
2023-03-01T19:54:50.436Z,70.40
2023-03-01T19:56:55.867Z,70.50
2023-03-01T19:59:04.459Z,70.10
2023-03-01T20:01:18.491Z,69.50
2023-03-01T20:03:23.384Z,70.00
2023-03-01T20:05:31.104Z,69.90
2023-03-01T20:07:36.090Z,69.80
2023-03-01T20:09:41.678Z,69.80
2023-03-01T20:11:46.592Z,69.80
2023-03-01T20:13:51.484Z,69.10
2023-03-01T20:15:58.995Z,70.00
2023-03-01T20:18:04.085Z,69.30
2023-03-01T20:20:10.393Z,69.40
2023-03-01T20:22:18.354Z,69.90
2023-03-01T20:24:23.283Z,69.80
2023-03-01T20:26:29.256Z,70.10
2023-03-01T20:28:34.646Z,70.10
2023-03-01T20:30:41.174Z,70.40
2023-03-01T20:32:46.306Z,70.50
2023-03-01T20:34:52.204Z,70.70
2023-03-01T20:36:57.161Z,70.60
2023-03-01T20:39:04.677Z,70.80
2023-03-01T20:41:11.681Z,70.70
2023-03-01T20:43:16.634Z,70.20
2023-03-01T20:45:21.616Z,70.10
2023-03-01T20:47:26.512Z,69.70
2023-03-01T20:49:31.411Z,69.70
2023-03-01T20:51:36.804Z,69.50
2023-03-01T20:53:41.852Z,68.70
2023-03-01T20:55:49.511Z,69.30
2023-03-01T20:57:54.406Z,68.90
2023-03-01T20:59:59.570Z,68.60
2023-03-01T21:02:04.480Z,68.60
2023-03-01T21:04:09.984Z,68.10
2023-03-01T21:06:15.875Z,68.30
2023-03-01T21:08:20.770Z,68.40
2023-03-01T21:10:25.733Z,68.60
2023-03-01T21:12:33.754Z,69.40
2023-03-01T21:14:42.793Z,69.40
2023-03-01T21:16:48.382Z,70.40
2023-03-01T21:18:53.749Z,69.40
2023-03-01T21:21:01.466Z,69.40
2023-03-01T21:23:06.375Z,70.30
2023-03-01T21:25:12.200Z,70.70
2023-03-01T21:27:17.292Z,71.50
2023-03-01T21:29:25.413Z,71.70
2023-03-01T21:31:33.984Z,72.60
2023-03-01T21:33:39.525Z,72.30
2023-03-01T21:35:44.395Z,72.50
2023-03-01T21:37:49.271Z,72.60
2023-03-01T21:39:54.167Z,73.00
2023-03-01T21:42:00.731Z,72.70
2023-03-01T21:44:07.756Z,72.90
2023-03-01T21:46:18.525Z,73.00
2023-03-01T21:48:23.457Z,73.10
2023-03-01T21:50:28.350Z,73.40
2023-03-01T21:52:33.683Z,74.00
2023-03-01T21:54:38.554Z,74.00
2023-03-01T21:56:44.952Z,75.10
2023-03-01T21:58:50.711Z,75.30
2023-03-01T22:00:55.732Z,76.20
2023-03-01T22:03:03.587Z,76.10
2023-03-01T22:05:10.505Z,76.40
2023-03-01T22:07:15.372Z,76.70
2023-03-01T22:09:22.950Z,76.80
2023-03-01T22:11:29.241Z,77.00
2023-03-01T22:13:34.434Z,77.10
2023-03-01T22:15:44.133Z,77.40
2023-03-01T22:17:49.348Z,77.40
2023-03-01T22:19:56.906Z,77.90
2023-03-01T22:22:01.831Z,78.20
2023-03-01T22:24:07.942Z,78.20
2023-03-01T22:26:26.430Z,78.70
2023-03-01T22:28:32.342Z,79.20
2023-03-01T22:30:37.272Z,78.70
2023-03-01T22:32:43.011Z,78.80
2023-03-01T22:34:47.929Z,78.70
2023-03-01T22:36:55.442Z,79.50
2023-03-01T22:39:01.982Z,79.70
2023-03-01T22:41:09.049Z,79.40
2023-03-01T22:43:14.755Z,79.30
2023-03-01T22:45:19.896Z,79.40
2023-03-01T22:47:24.832Z,79.70
2023-03-01T22:49:29.804Z,79.40
2023-03-01T22:51:38.437Z,80.00
2023-03-01T22:53:46.660Z,80.50
2023-03-01T22:55:51.579Z,80.00
2023-03-01T22:57:56.748Z,80.20
2023-03-01T23:00:01.946Z,80.30
2023-03-01T23:02:07.015Z,80.40
2023-03-01T23:04:12.450Z,79.80
2023-03-01T23:06:18.795Z,80.30
2023-03-01T23:08:23.976Z,79.90
2023-03-01T23:10:31.459Z,80.10
2023-03-01T23:12:36.730Z,79.70
2023-03-01T23:14:42.091Z,80.00
2023-03-01T23:16:47.099Z,79.70
2023-03-01T23:18:52.053Z,80.20
2023-03-01T23:20:56.966Z,80.00
2023-03-01T23:23:02.089Z,80.40
2023-03-01T23:25:11.201Z,80.00
2023-03-01T23:27:19.069Z,80.80
2023-03-01T23:29:25.541Z,80.40
2023-03-01T23:31:30.486Z,79.90
2023-03-01T23:33:37.865Z,81.00
2023-03-01T23:35:42.759Z,80.40
2023-03-01T23:37:47.934Z,80.10
2023-03-01T23:39:53.077Z,81.00
2023-03-01T23:41:58.524Z,81.20
2023-03-01T23:44:08.219Z,80.90
2023-03-01T23:46:15.236Z,80.90
2023-03-01T23:48:20.610Z,80.90
2023-03-01T23:50:25.645Z,81.30
2023-03-01T23:52:30.615Z,81.40
2023-03-01T23:54:35.686Z,81.50
2023-03-01T23:56:43.372Z,81.20
2023-03-01T23:58:50.506Z,82.10
